Preview of NWS' New Version of Forecast
This preview is not operational and should not be used for support decisions.

Terminal Aerodrome Forecast (TAF)

Issued by National Weather Service (NWS)

                            
089 
FTUS42 KMFL 252052 AAA
TAFMIA
TAF AMD
KMIA 252052Z 2521/2624 14010KT P6SM SCT035 SCT050
     FM260000 VRB03KT P6SM FEW025
     FM261500 15008KT P6SM SCT030 SCT050=